sensor_id;sensor_type;location;lat;lon;timestamp;temperature;humidity
5560;DHT22;2803;47.916;8.074;2024-03-02T00:01:31;9.00;99.90
5560;DHT22;2803;47.916;8.074;2024-03-02T00:03:58;9.10;99.90
5560;DHT22;2803;47.916;8.074;2024-03-02T00:06:26;9.10;99.90
5560;DHT22;2803;47.916;8.074;2024-03-02T00:08:57;8.50;99.90
5560;DHT22;2803;47.916;8.074;2024-03-02T00:11:24;7.70;99.90
5560;DHT22;2803;47.916;8.074;2024-03-02T00:13:52;7.50;99.90
5560;DHT22;2803;47.916;8.074;2024-03-02T00:16:19;7.50;99.90
5560;DHT22;2803;47.916;8.074;2024-03-02T00:18:46;7.80;99.90
5560;DHT22;2803;47.916;8.074;2024-03-02T00:21:12;8.20;99.90
5560;DHT22;2803;47.916;8.074;2024-03-02T00:23:41;8.40;99.90
5560;DHT22;2803;47.916;8.074;2024-03-02T00:26:11;8.50;99.90
5560;DHT22;2803;47.916;8.074;2024-03-02T00:28:39;8.00;99.90
5560;DHT22;2803;47.916;8.074;2024-03-02T00:31:09;8.30;99.90
5560;DHT22;2803;47.916;8.074;2024-03-02T00:33:40;8.30;99.90
5560;DHT22;2803;47.916;8.074;2024-03-02T00:36:08;8.30;99.90
5560;DHT22;2803;47.916;8.074;2024-03-02T00:38:44;8.30;99.90
5560;DHT22;2803;47.916;8.074;2024-03-02T00:41:16;8.30;99.90
5560;DHT22;2803;47.916;8.074;2024-03-02T00:43:45;8.20;99.90
5560;DHT22;2803;47.916;8.074;2024-03-02T00:46:16;8.40;99.90
5560;DHT22;2803;47.916;8.074;2024-03-02T00:48:48;8.40;99.90
5560;DHT22;2803;47.916;8.074;2024-03-02T00:51:17;7.90;99.90
5560;DHT22;2803;47.916;8.074;2024-03-02T00:53:45;8.10;99.90
5560;DHT22;2803;47.916;8.074;2024-03-02T00:56:12;8.30;99.90
5560;DHT22;2803;47.916;8.074;2024-03-02T00:58:39;8.30;99.90
5560;DHT22;2803;47.916;8.074;2024-03-02T01:01:06;8.40;99.90
5560;DHT22;2803;47.916;8.074;2024-03-02T01:03:33;8.60;99.90
5560;DHT22;2803;47.916;8.074;2024-03-02T01:06:00;8.80;99.90
5560;DHT22;2803;47.916;8.074;2024-03-02T01:08:27;8.80;99.90
5560;DHT22;2803;47.916;8.074;2024-03-02T01:10:55;8.70;99.90
5560;DHT22;2803;47.916;8.074;2024-03-02T01:13:22;8.60;99.90
5560;DHT22;2803;47.916;8.074;2024-03-02T01:15:49;8.70;99.90
5560;DHT22;2803;47.916;8.074;2024-03-02T01:18:16;8.60;99.90
5560;DHT22;2803;47.916;8.074;2024-03-02T01:20:42;8.60;99.90
5560;DHT22;2803;47.916;8.074;2024-03-02T01:23:08;8.50;99.90
5560;DHT22;2803;47.916;8.074;2024-03-02T01:25:35;8.00;99.90
5560;DHT22;2803;47.916;8.074;2024-03-02T01:28:03;7.90;99.90
5560;DHT22;2803;47.916;8.074;2024-03-02T01:30:30;8.00;99.90
5560;DHT22;2803;47.916;8.074;2024-03-02T01:32:57;7.90;99.90
5560;DHT22;2803;47.916;8.074;2024-03-02T01:35:24;8.00;99.90
5560;DHT22;2803;47.916;8.074;2024-03-02T01:37:52;7.90;99.90
5560;DHT22;2803;47.916;8.074;2024-03-02T01:40:18;7.90;99.90
5560;DHT22;2803;47.916;8.074;2024-03-02T01:42:46;7.60;99.90
5560;DHT22;2803;47.916;8.074;2024-03-02T01:45:15;7.70;99.90
5560;DHT22;2803;47.916;8.074;2024-03-02T01:47:41;7.70;99.90
5560;DHT22;2803;47.916;8.074;2024-03-02T01:50:08;7.60;99.90
5560;DHT22;2803;47.916;8.074;2024-03-02T01:52:37;7.60;99.90
5560;DHT22;2803;47.916;8.074;2024-03-02T01:55:04;7.70;99.90
5560;DHT22;2803;47.916;8.074;2024-03-02T01:57:31;7.60;99.90
5560;DHT22;2803;47.916;8.074;2024-03-02T01:59:58;7.30;99.90
5560;DHT22;2803;47.916;8.074;2024-03-02T02:02:26;7.30;99.90
5560;DHT22;2803;47.916;8.074;2024-03-02T02:04:53;7.50;99.90
5560;DHT22;2803;47.916;8.074;2024-03-02T02:07:19;7.60;99.90
5560;DHT22;2803;47.916;8.074;2024-03-02T02:09:46;7.70;99.90
5560;DHT22;2803;47.916;8.074;2024-03-02T02:12:12;7.80;99.90
5560;DHT22;2803;47.916;8.074;2024-03-02T02:14:47;7.60;99.90
5560;DHT22;2803;47.916;8.074;2024-03-02T02:17:13;7.70;99.90
5560;DHT22;2803;47.916;8.074;2024-03-02T02:19:41;7.70;99.90
5560;DHT22;2803;47.916;8.074;2024-03-02T02:22:10;7.60;99.90
5560;DHT22;2803;47.916;8.074;2024-03-02T02:24:39;7.70;99.90
5560;DHT22;2803;47.916;8.074;2024-03-02T02:27:06;7.50;99.90
5560;DHT22;2803;47.916;8.074;2024-03-02T02:29:33;7.50;99.90
5560;DHT22;2803;47.916;8.074;2024-03-02T02:31:59;7.40;99.90
5560;DHT22;2803;47.916;8.074;2024-03-02T02:34:26;7.20;99.90
5560;DHT22;2803;47.916;8.074;2024-03-02T02:36:53;7.20;99.90
5560;DHT22;2803;47.916;8.074;2024-03-02T02:39:22;7.00;99.90
5560;DHT22;2803;47.916;8.074;2024-03-02T02:41:48;7.20;99.90
5560;DHT22;2803;47.916;8.074;2024-03-02T02:44:15;7.00;99.90
5560;DHT22;2803;47.916;8.074;2024-03-02T02:46:41;7.20;99.90
5560;DHT22;2803;47.916;8.074;2024-03-02T02:49:08;7.40;99.90
5560;DHT22;2803;47.916;8.074;2024-03-02T02:51:35;7.40;99.90
5560;DHT22;2803;47.916;8.074;2024-03-02T02:54:02;7.50;99.90
5560;DHT22;2803;47.916;8.074;2024-03-02T02:56:29;7.40;99.90
5560;DHT22;2803;47.916;8.074;2024-03-02T02:58:56;7.40;99.90
5560;DHT22;2803;47.916;8.074;2024-03-02T03:01:23;7.50;99.90
5560;DHT22;2803;47.916;8.074;2024-03-02T03:03:49;7.50;99.90
5560;DHT22;2803;47.916;8.074;2024-03-02T03:06:16;7.60;99.90
5560;DHT22;2803;47.916;8.074;2024-03-02T03:08:42;7.60;99.90
5560;DHT22;2803;47.916;8.074;2024-03-02T03:11:09;7.60;99.90
5560;DHT22;2803;47.916;8.074;2024-03-02T03:13:37;7.70;99.90
5560;DHT22;2803;47.916;8.074;2024-03-02T03:16:04;7.50;99.90
5560;DHT22;2803;47.916;8.074;2024-03-02T03:18:31;7.60;99.90
5560;DHT22;2803;47.916;8.074;2024-03-02T03:20:57;7.60;99.90
5560;DHT22;2803;47.916;8.074;2024-03-02T03:23:24;7.60;99.90
5560;DHT22;2803;47.916;8.074;2024-03-02T03:25:51;7.50;99.90
5560;DHT22;2803;47.916;8.074;2024-03-02T03:28:17;6.90;99.90
5560;DHT22;2803;47.916;8.074;2024-03-02T03:30:45;6.40;99.90
5560;DHT22;2803;47.916;8.074;2024-03-02T03:33:12;6.40;99.90
5560;DHT22;2803;47.916;8.074;2024-03-02T03:35:39;6.00;99.90
5560;DHT22;2803;47.916;8.074;2024-03-02T03:38:05;6.00;99.90
5560;DHT22;2803;47.916;8.074;2024-03-02T03:40:32;6.10;99.90
5560;DHT22;2803;47.916;8.074;2024-03-02T03:42:58;6.00;99.90
5560;DHT22;2803;47.916;8.074;2024-03-02T03:45:25;6.20;99.90
5560;DHT22;2803;47.916;8.074;2024-03-02T03:47:53;6.30;99.90
5560;DHT22;2803;47.916;8.074;2024-03-02T03:50:20;6.30;99.90
5560;DHT22;2803;47.916;8.074;2024-03-02T03:52:46;6.70;99.90
5560;DHT22;2803;47.916;8.074;2024-03-02T03:55:13;6.70;99.90
5560;DHT22;2803;47.916;8.074;2024-03-02T03:57:40;6.90;99.90
5560;DHT22;2803;47.916;8.074;2024-03-02T04:00:07;6.80;99.90
5560;DHT22;2803;47.916;8.074;2024-03-02T04:02:35;6.80;99.90
5560;DHT22;2803;47.916;8.074;2024-03-02T04:05:03;6.80;99.90
5560;DHT22;2803;47.916;8.074;2024-03-02T04:07:34;6.80;99.90
5560;DHT22;2803;47.916;8.074;2024-03-02T04:10:06;6.90;99.90
5560;DHT22;2803;47.916;8.074;2024-03-02T04:12:34;6.70;99.90
5560;DHT22;2803;47.916;8.074;2024-03-02T04:15:00;6.70;99.90
5560;DHT22;2803;47.916;8.074;2024-03-02T04:17:29;6.60;99.90
5560;DHT22;2803;47.916;8.074;2024-03-02T04:19:57;6.20;99.90
5560;DHT22;2803;47.916;8.074;2024-03-02T04:22:25;6.00;99.90
5560;DHT22;2803;47.916;8.074;2024-03-02T04:24:52;6.10;99.90
5560;DHT22;2803;47.916;8.074;2024-03-02T04:27:18;5.80;99.90
5560;DHT22;2803;47.916;8.074;2024-03-02T04:29:45;6.10;99.90
5560;DHT22;2803;47.916;8.074;2024-03-02T04:32:11;6.30;99.90
5560;DHT22;2803;47.916;8.074;2024-03-02T04:34:38;6.30;99.90
5560;DHT22;2803;47.916;8.074;2024-03-02T04:37:05;6.20;99.90
5560;DHT22;2803;47.916;8.074;2024-03-02T04:39:34;5.90;99.90
5560;DHT22;2803;47.916;8.074;2024-03-02T04:42:01;5.80;99.90
5560;DHT22;2803;47.916;8.074;2024-03-02T04:44:29;5.30;99.90
5560;DHT22;2803;47.916;8.074;2024-03-02T04:46:55;5.60;99.90
5560;DHT22;2803;47.916;8.074;2024-03-02T04:49:22;6.00;99.90
5560;DHT22;2803;47.916;8.074;2024-03-02T04:51:48;5.90;99.90
5560;DHT22;2803;47.916;8.074;2024-03-02T04:54:15;6.20;99.90
5560;DHT22;2803;47.916;8.074;2024-03-02T04:56:43;6.30;99.90
5560;DHT22;2803;47.916;8.074;2024-03-02T04:59:15;6.10;99.90
5560;DHT22;2803;47.916;8.074;2024-03-02T05:01:41;6.20;99.90
5560;DHT22;2803;47.916;8.074;2024-03-02T05:04:08;5.80;99.90
5560;DHT22;2803;47.916;8.074;2024-03-02T05:06:38;4.90;99.90
5560;DHT22;2803;47.916;8.074;2024-03-02T05:09:05;5.10;99.90
5560;DHT22;2803;47.916;8.074;2024-03-02T05:11:32;5.10;99.90
5560;DHT22;2803;47.916;8.074;2024-03-02T05:14:20;4.80;99.90
5560;DHT22;2803;47.916;8.074;2024-03-02T05:16:47;5.00;99.90
5560;DHT22;2803;47.916;8.074;2024-03-02T05:19:13;4.60;99.90
5560;DHT22;2803;47.916;8.074;2024-03-02T05:21:40;4.70;99.90
5560;DHT22;2803;47.916;8.074;2024-03-02T05:24:07;5.00;99.90
5560;DHT22;2803;47.916;8.074;2024-03-02T05:26:33;5.30;99.90
5560;DHT22;2803;47.916;8.074;2024-03-02T05:29:00;5.40;99.90
5560;DHT22;2803;47.916;8.074;2024-03-02T05:31:28;5.70;99.90
5560;DHT22;2803;47.916;8.074;2024-03-02T05:33:54;5.70;99.90
5560;DHT22;2803;47.916;8.074;2024-03-02T05:36:21;5.60;99.90
5560;DHT22;2803;47.916;8.074;2024-03-02T05:38:47;5.20;99.90
5560;DHT22;2803;47.916;8.074;2024-03-02T05:41:14;4.90;99.90
5560;DHT22;2803;47.916;8.074;2024-03-02T05:43:41;5.20;99.90
5560;DHT22;2803;47.916;8.074;2024-03-02T05:46:07;5.10;99.90
5560;DHT22;2803;47.916;8.074;2024-03-02T05:48:35;4.90;99.90
5560;DHT22;2803;47.916;8.074;2024-03-02T05:51:02;4.70;99.90
5560;DHT22;2803;47.916;8.074;2024-03-02T05:53:29;4.90;99.90
5560;DHT22;2803;47.916;8.074;2024-03-02T05:55:56;4.90;99.90
5560;DHT22;2803;47.916;8.074;2024-03-02T05:58:22;4.90;99.90
5560;DHT22;2803;47.916;8.074;2024-03-02T06:00:59;5.20;99.90
5560;DHT22;2803;47.916;8.074;2024-03-02T06:03:25;5.30;99.90
5560;DHT22;2803;47.916;8.074;2024-03-02T06:05:54;5.50;99.90
5560;DHT22;2803;47.916;8.074;2024-03-02T06:08:22;6.20;99.90
5560;DHT22;2803;47.916;8.074;2024-03-02T06:10:49;6.50;99.90
5560;DHT22;2803;47.916;8.074;2024-03-02T06:13:15;6.50;99.90
5560;DHT22;2803;47.916;8.074;2024-03-02T06:15:42;6.80;99.90
5560;DHT22;2803;47.916;8.074;2024-03-02T06:18:08;6.60;99.90
5560;DHT22;2803;47.916;8.074;2024-03-02T06:20:35;6.50;99.90
5560;DHT22;2803;47.916;8.074;2024-03-02T06:23:03;6.20;99.90
5560;DHT22;2803;47.916;8.074;2024-03-02T06:25:30;6.10;99.90
5560;DHT22;2803;47.916;8.074;2024-03-02T06:27:57;5.80;99.90
5560;DHT22;2803;47.916;8.074;2024-03-02T06:30:23;4.80;99.90
5560;DHT22;2803;47.916;8.074;2024-03-02T06:32:50;5.40;99.90
5560;DHT22;2803;47.916;8.074;2024-03-02T06:35:16;4.70;99.90
5560;DHT22;2803;47.916;8.074;2024-03-02T06:37:43;4.60;99.90
5560;DHT22;2803;47.916;8.074;2024-03-02T06:40:11;4.60;99.90
5560;DHT22;2803;47.916;8.074;2024-03-02T06:42:37;4.90;99.90
5560;DHT22;2803;47.916;8.074;2024-03-02T06:45:05;4.80;99.90
5560;DHT22;2803;47.916;8.074;2024-03-02T06:47:32;4.80;99.90
5560;DHT22;2803;47.916;8.074;2024-03-02T06:49:58;5.40;99.90
5560;DHT22;2803;47.916;8.074;2024-03-02T06:52:25;5.60;99.90
5560;DHT22;2803;47.916;8.074;2024-03-02T06:54:51;5.20;99.90
5560;DHT22;2803;47.916;8.074;2024-03-02T06:57:19;4.90;99.90
5560;DHT22;2803;47.916;8.074;2024-03-02T06:59:46;4.70;99.90
5560;DHT22;2803;47.916;8.074;2024-03-02T07:02:12;4.90;99.90
5560;DHT22;2803;47.916;8.074;2024-03-02T07:04:39;4.90;99.90
5560;DHT22;2803;47.916;8.074;2024-03-02T07:07:06;5.10;99.90
5560;DHT22;2803;47.916;8.074;2024-03-02T07:09:32;5.30;99.90
5560;DHT22;2803;47.916;8.074;2024-03-02T07:12:00;5.50;99.90
5560;DHT22;2803;47.916;8.074;2024-03-02T07:14:28;5.40;99.90
5560;DHT22;2803;47.916;8.074;2024-03-02T07:17:08;5.50;99.90
5560;DHT22;2803;47.916;8.074;2024-03-02T07:19:35;5.90;99.90
5560;DHT22;2803;47.916;8.074;2024-03-02T07:22:06;5.80;99.90
5560;DHT22;2803;47.916;8.074;2024-03-02T07:24:32;6.00;99.90
5560;DHT22;2803;47.916;8.074;2024-03-02T07:26:59;5.90;99.90
5560;DHT22;2803;47.916;8.074;2024-03-02T07:29:28;5.70;99.90
5560;DHT22;2803;47.916;8.074;2024-03-02T07:31:54;6.10;99.90
5560;DHT22;2803;47.916;8.074;2024-03-02T07:34:21;6.50;99.90
5560;DHT22;2803;47.916;8.074;2024-03-02T07:36:47;6.30;99.90
5560;DHT22;2803;47.916;8.074;2024-03-02T07:39:14;5.90;99.90
5560;DHT22;2803;47.916;8.074;2024-03-02T07:41:41;6.00;99.90
5560;DHT22;2803;47.916;8.074;2024-03-02T07:44:09;5.90;99.90
5560;DHT22;2803;47.916;8.074;2024-03-02T07:46:38;6.10;99.90
5560;DHT22;2803;47.916;8.074;2024-03-02T07:49:04;6.30;99.90
5560;DHT22;2803;47.916;8.074;2024-03-02T07:51:31;6.30;99.90
5560;DHT22;2803;47.916;8.074;2024-03-02T07:53:57;6.50;99.90
5560;DHT22;2803;47.916;8.074;2024-03-02T07:56:24;6.50;99.90
5560;DHT22;2803;47.916;8.074;2024-03-02T07:58:51;6.80;99.90
5560;DHT22;2803;47.916;8.074;2024-03-02T08:01:17;6.80;99.90
5560;DHT22;2803;47.916;8.074;2024-03-02T08:03:47;6.80;99.90
5560;DHT22;2803;47.916;8.074;2024-03-02T08:06:16;7.20;99.90
5560;DHT22;2803;47.916;8.074;2024-03-02T08:08:46;7.20;99.90
5560;DHT22;2803;47.916;8.074;2024-03-02T08:11:12;7.80;99.90
5560;DHT22;2803;47.916;8.074;2024-03-02T08:13:39;7.20;99.90
5560;DHT22;2803;47.916;8.074;2024-03-02T08:16:06;7.00;99.90
5560;DHT22;2803;47.916;8.074;2024-03-02T08:18:34;7.50;99.90
5560;DHT22;2803;47.916;8.074;2024-03-02T08:21:03;7.80;99.90
5560;DHT22;2803;47.916;8.074;2024-03-02T08:23:29;8.10;99.90
5560;DHT22;2803;47.916;8.074;2024-03-02T08:25:57;8.10;99.90
5560;DHT22;2803;47.916;8.074;2024-03-02T08:28:24;8.50;99.90
5560;DHT22;2803;47.916;8.074;2024-03-02T08:30:50;8.20;99.90
5560;DHT22;2803;47.916;8.074;2024-03-02T08:33:17;8.00;99.90
5560;DHT22;2803;47.916;8.074;2024-03-02T08:35:43;8.20;99.90
5560;DHT22;2803;47.916;8.074;2024-03-02T08:38:12;8.20;99.90
5560;DHT22;2803;47.916;8.074;2024-03-02T08:40:39;8.50;99.90
5560;DHT22;2803;47.916;8.074;2024-03-02T08:43:06;9.00;99.90
5560;DHT22;2803;47.916;8.074;2024-03-02T08:45:33;9.10;99.90
5560;DHT22;2803;47.916;8.074;2024-03-02T08:48:01;9.60;99.90
5560;DHT22;2803;47.916;8.074;2024-03-02T08:50:27;9.60;99.90
5560;DHT22;2803;47.916;8.074;2024-03-02T08:52:54;9.50;99.90
5560;DHT22;2803;47.916;8.074;2024-03-02T08:55:22;9.90;99.90
5560;DHT22;2803;47.916;8.074;2024-03-02T08:57:48;10.00;99.90
5560;DHT22;2803;47.916;8.074;2024-03-02T09:00:17;9.90;99.90
5560;DHT22;2803;47.916;8.074;2024-03-02T09:02:44;10.00;99.90
5560;DHT22;2803;47.916;8.074;2024-03-02T09:05:11;10.10;99.90
5560;DHT22;2803;47.916;8.074;2024-03-02T09:07:37;10.00;99.90
5560;DHT22;2803;47.916;8.074;2024-03-02T09:10:05;10.70;99.90
5560;DHT22;2803;47.916;8.074;2024-03-02T09:12:33;10.40;99.90
5560;DHT22;2803;47.916;8.074;2024-03-02T09:15:00;11.00;99.90
5560;DHT22;2803;47.916;8.074;2024-03-02T09:17:27;11.50;99.90
5560;DHT22;2803;47.916;8.074;2024-03-02T09:19:53;11.40;99.90
5560;DHT22;2803;47.916;8.074;2024-03-02T09:22:20;11.70;99.90
5560;DHT22;2803;47.916;8.074;2024-03-02T09:24:47;11.90;99.90
5560;DHT22;2803;47.916;8.074;2024-03-02T09:27:13;12.30;99.90
5560;DHT22;2803;47.916;8.074;2024-03-02T09:29:41;12.50;99.90
5560;DHT22;2803;47.916;8.074;2024-03-02T09:32:11;12.30;99.90
5560;DHT22;2803;47.916;8.074;2024-03-02T09:34:39;12.10;99.90
5560;DHT22;2803;47.916;8.074;2024-03-02T09:37:06;12.30;99.90
5560;DHT22;2803;47.916;8.074;2024-03-02T09:39:33;12.60;99.90
5560;DHT22;2803;47.916;8.074;2024-03-02T09:42:00;12.50;99.90
5560;DHT22;2803;47.916;8.074;2024-03-02T09:44:26;12.50;99.90
5560;DHT22;2803;47.916;8.074;2024-03-02T09:46:54;12.30;99.90
5560;DHT22;2803;47.916;8.074;2024-03-02T09:49:22;12.70;99.90
5560;DHT22;2803;47.916;8.074;2024-03-02T09:51:49;13.00;99.90
5560;DHT22;2803;47.916;8.074;2024-03-02T09:54:16;13.20;99.90
5560;DHT22;2803;47.916;8.074;2024-03-02T09:56:42;13.60;99.90
5560;DHT22;2803;47.916;8.074;2024-03-02T09:59:09;13.90;99.90
5560;DHT22;2803;47.916;8.074;2024-03-02T10:01:35;14.00;99.90
5560;DHT22;2803;47.916;8.074;2024-03-02T10:04:05;14.20;99.90
5560;DHT22;2803;47.916;8.074;2024-03-02T10:06:32;14.80;99.90
5560;DHT22;2803;47.916;8.074;2024-03-02T10:08:57;14.70;99.90
5560;DHT22;2803;47.916;8.074;2024-03-02T10:11:26;15.20;99.90
5560;DHT22;2803;47.916;8.074;2024-03-02T10:14:09;15.60;99.90
5560;DHT22;2803;47.916;8.074;2024-03-02T10:16:36;16.30;99.90
5560;DHT22;2803;47.916;8.074;2024-03-02T10:21:58;16.30;99.90
5560;DHT22;2803;47.916;8.074;2024-03-02T10:24:25;15.90;99.90
5560;DHT22;2803;47.916;8.074;2024-03-02T10:26:52;15.40;99.90
5560;DHT22;2803;47.916;8.074;2024-03-02T10:29:19;15.60;99.90
5560;DHT22;2803;47.916;8.074;2024-03-02T10:31:46;15.80;99.90
5560;DHT22;2803;47.916;8.074;2024-03-02T10:34:13;16.70;99.90
5560;DHT22;2803;47.916;8.074;2024-03-02T10:36:42;16.60;99.90
5560;DHT22;2803;47.916;8.074;2024-03-02T10:39:11;17.40;99.90
5560;DHT22;2803;47.916;8.074;2024-03-02T10:41:38;18.10;98.50
5560;DHT22;2803;47.916;8.074;2024-03-02T10:44:07;18.60;97.60
5560;DHT22;2803;47.916;8.074;2024-03-02T10:46:34;18.80;95.70
5560;DHT22;2803;47.916;8.074;2024-03-02T10:49:02;19.30;95.00
5560;DHT22;2803;47.916;8.074;2024-03-02T10:51:30;19.90;93.40
5560;DHT22;2803;47.916;8.074;2024-03-02T10:53:58;20.40;91.80
5560;DHT22;2803;47.916;8.074;2024-03-02T10:56:31;20.60;91.10
5560;DHT22;2803;47.916;8.074;2024-03-02T10:59:02;21.30;90.20
5560;DHT22;2803;47.916;8.074;2024-03-02T11:01:30;21.70;90.10
5560;DHT22;2803;47.916;8.074;2024-03-02T11:03:58;21.80;85.00
5560;DHT22;2803;47.916;8.074;2024-03-02T11:06:26;21.70;86.10
5560;DHT22;2803;47.916;8.074;2024-03-02T11:08:55;22.20;85.50
5560;DHT22;2803;47.916;8.074;2024-03-02T11:11:31;22.30;83.50
5560;DHT22;2803;47.916;8.074;2024-03-02T11:14:01;22.30;83.20
5560;DHT22;2803;47.916;8.074;2024-03-02T11:16:36;22.40;79.60
5560;DHT22;2803;47.916;8.074;2024-03-02T11:19:05;21.70;78.60
5560;DHT22;2803;47.916;8.074;2024-03-02T11:21:32;22.10;80.30
5560;DHT22;2803;47.916;8.074;2024-03-02T11:23:59;22.70;82.50
5560;DHT22;2803;47.916;8.074;2024-03-02T11:26:27;23.10;77.80
5560;DHT22;2803;47.916;8.074;2024-03-02T11:28:55;23.40;77.10
5560;DHT22;2803;47.916;8.074;2024-03-02T11:34:30;22.50;74.20
5560;DHT22;2803;47.916;8.074;2024-03-02T11:36:56;22.80;77.60
5560;DHT22;2803;47.916;8.074;2024-03-02T11:39:24;21.90;73.10
5560;DHT22;2803;47.916;8.074;2024-03-02T11:41:51;21.60;79.40
5560;DHT22;2803;47.916;8.074;2024-03-02T11:44:19;21.80;76.80
5560;DHT22;2803;47.916;8.074;2024-03-02T11:46:46;22.60;78.30
5560;DHT22;2803;47.916;8.074;2024-03-02T11:49:14;23.00;73.30
5560;DHT22;2803;47.916;8.074;2024-03-02T11:51:51;22.50;70.10
5560;DHT22;2803;47.916;8.074;2024-03-02T11:54:19;23.00;72.80
5560;DHT22;2803;47.916;8.074;2024-03-02T11:56:46;23.80;69.70
5560;DHT22;2803;47.916;8.074;2024-03-02T11:59:13;24.60;69.30
5560;DHT22;2803;47.916;8.074;2024-03-02T12:01:42;24.60;66.30
5560;DHT22;2803;47.916;8.074;2024-03-02T12:04:10;24.00;66.20
5560;DHT22;2803;47.916;8.074;2024-03-02T12:06:37;24.40;67.20
5560;DHT22;2803;47.916;8.074;2024-03-02T12:09:04;24.10;65.30
5560;DHT22;2803;47.916;8.074;2024-03-02T12:11:32;24.10;64.30
5560;DHT22;2803;47.916;8.074;2024-03-02T12:13:58;24.00;62.60
5560;DHT22;2803;47.916;8.074;2024-03-02T12:16:25;23.10;65.90
5560;DHT22;2803;47.916;8.074;2024-03-02T12:18:54;23.00;65.50
5560;DHT22;2803;47.916;8.074;2024-03-02T12:21:21;23.10;61.90
5560;DHT22;2803;47.916;8.074;2024-03-02T12:23:47;23.10;61.80
5560;DHT22;2803;47.916;8.074;2024-03-02T12:26:15;23.00;63.30
5560;DHT22;2803;47.916;8.074;2024-03-02T12:28:43;22.60;59.90
5560;DHT22;2803;47.916;8.074;2024-03-02T12:31:11;22.20;60.80
5560;DHT22;2803;47.916;8.074;2024-03-02T12:33:37;22.10;61.20
5560;DHT22;2803;47.916;8.074;2024-03-02T12:36:09;22.40;61.00
5560;DHT22;2803;47.916;8.074;2024-03-02T12:38:37;22.50;61.20
5560;DHT22;2803;47.916;8.074;2024-03-02T12:41:04;22.00;59.40
5560;DHT22;2803;47.916;8.074;2024-03-02T12:43:31;21.60;60.80
5560;DHT22;2803;47.916;8.074;2024-03-02T12:45:58;20.90;61.70
5560;DHT22;2803;47.916;8.074;2024-03-02T12:48:25;19.70;65.50
5560;DHT22;2803;47.916;8.074;2024-03-02T12:50:51;19.60;65.30
5560;DHT22;2803;47.916;8.074;2024-03-02T12:53:21;19.70;66.60
5560;DHT22;2803;47.916;8.074;2024-03-02T12:55:48;19.70;64.60
5560;DHT22;2803;47.916;8.074;2024-03-02T12:58:17;20.40;61.60
5560;DHT22;2803;47.916;8.074;2024-03-02T13:00:43;21.00;59.10
5560;DHT22;2803;47.916;8.074;2024-03-02T13:03:11;21.80;59.20
5560;DHT22;2803;47.916;8.074;2024-03-02T13:05:39;21.60;59.80
5560;DHT22;2803;47.916;8.074;2024-03-02T13:08:06;21.10;60.10
5560;DHT22;2803;47.916;8.074;2024-03-02T13:10:34;20.60;62.30
5560;DHT22;2803;47.916;8.074;2024-03-02T13:13:01;20.80;62.40
5560;DHT22;2803;47.916;8.074;2024-03-02T13:15:27;20.70;62.80
5560;DHT22;2803;47.916;8.074;2024-03-02T13:17:57;20.70;62.80
5560;DHT22;2803;47.916;8.074;2024-03-02T13:20:30;21.10;61.20
5560;DHT22;2803;47.916;8.074;2024-03-02T13:22:57;21.90;62.20
5560;DHT22;2803;47.916;8.074;2024-03-02T13:25:23;22.80;62.70
5560;DHT22;2803;47.916;8.074;2024-03-02T13:27:51;23.30;59.90
5560;DHT22;2803;47.916;8.074;2024-03-02T13:30:18;23.10;60.20
5560;DHT22;2803;47.916;8.074;2024-03-02T13:32:44;22.10;57.50
5560;DHT22;2803;47.916;8.074;2024-03-02T13:35:11;21.20;58.80
5560;DHT22;2803;47.916;8.074;2024-03-02T13:37:37;21.10;58.50
5560;DHT22;2803;47.916;8.074;2024-03-02T13:40:05;20.20;60.80
5560;DHT22;2803;47.916;8.074;2024-03-02T13:42:35;20.40;60.50
5560;DHT22;2803;47.916;8.074;2024-03-02T13:45:03;20.00;59.50
5560;DHT22;2803;47.916;8.074;2024-03-02T13:47:30;19.70;60.90
5560;DHT22;2803;47.916;8.074;2024-03-02T13:49:57;20.10;61.60
5560;DHT22;2803;47.916;8.074;2024-03-02T13:52:24;20.10;60.50
5560;DHT22;2803;47.916;8.074;2024-03-02T13:54:51;19.90;62.30
5560;DHT22;2803;47.916;8.074;2024-03-02T13:57:19;19.50;65.40
5560;DHT22;2803;47.916;8.074;2024-03-02T13:59:46;19.30;64.90
5560;DHT22;2803;47.916;8.074;2024-03-02T14:02:13;19.00;65.30
5560;DHT22;2803;47.916;8.074;2024-03-02T14:04:42;18.60;66.00
5560;DHT22;2803;47.916;8.074;2024-03-02T14:07:08;18.70;66.80
5560;DHT22;2803;47.916;8.074;2024-03-02T14:09:36;18.00;66.10
5560;DHT22;2803;47.916;8.074;2024-03-02T14:12:04;16.80;66.20
5560;DHT22;2803;47.916;8.074;2024-03-02T14:14:32;16.80;67.30
5560;DHT22;2803;47.916;8.074;2024-03-02T14:16:59;16.50;67.30
5560;DHT22;2803;47.916;8.074;2024-03-02T14:19:31;16.00;68.00
5560;DHT22;2803;47.916;8.074;2024-03-02T14:21:58;15.50;68.70
5560;DHT22;2803;47.916;8.074;2024-03-02T14:24:25;15.70;69.80
5560;DHT22;2803;47.916;8.074;2024-03-02T14:26:53;15.50;69.10
5560;DHT22;2803;47.916;8.074;2024-03-02T14:29:20;15.30;70.80
5560;DHT22;2803;47.916;8.074;2024-03-02T14:31:46;15.60;71.30
5560;DHT22;2803;47.916;8.074;2024-03-02T14:34:13;16.00;71.30
5560;DHT22;2803;47.916;8.074;2024-03-02T14:36:41;16.00;69.10
5560;DHT22;2803;47.916;8.074;2024-03-02T14:39:09;16.20;69.20
5560;DHT22;2803;47.916;8.074;2024-03-02T14:41:36;16.00;68.10
5560;DHT22;2803;47.916;8.074;2024-03-02T14:44:03;15.80;68.30
5560;DHT22;2803;47.916;8.074;2024-03-02T14:46:29;15.80;68.60
5560;DHT22;2803;47.916;8.074;2024-03-02T14:48:56;15.90;69.10
5560;DHT22;2803;47.916;8.074;2024-03-02T14:51:23;15.20;69.90
5560;DHT22;2803;47.916;8.074;2024-03-02T14:53:51;15.40;70.70
5560;DHT22;2803;47.916;8.074;2024-03-02T14:56:18;15.40;72.20
5560;DHT22;2803;47.916;8.074;2024-03-02T14:58:44;15.60;72.50
5560;DHT22;2803;47.916;8.074;2024-03-02T15:01:11;15.30;73.60
5560;DHT22;2803;47.916;8.074;2024-03-02T15:03:38;14.80;74.80
5560;DHT22;2803;47.916;8.074;2024-03-02T15:06:05;15.10;76.10
5560;DHT22;2803;47.916;8.074;2024-03-02T15:08:33;14.80;76.30
5560;DHT22;2803;47.916;8.074;2024-03-02T15:11:01;15.00;77.50
5560;DHT22;2803;47.916;8.074;2024-03-02T15:13:29;15.10;79.00
5560;DHT22;2803;47.916;8.074;2024-03-02T15:15:56;15.30;79.10
5560;DHT22;2803;47.916;8.074;2024-03-02T15:18:22;15.00;80.30
5560;DHT22;2803;47.916;8.074;2024-03-02T15:20:49;15.10;80.60
5560;DHT22;2803;47.916;8.074;2024-03-02T15:23:16;15.10;80.50
5560;DHT22;2803;47.916;8.074;2024-03-02T15:25:42;15.20;81.00
5560;DHT22;2803;47.916;8.074;2024-03-02T15:28:10;15.10;81.80
5560;DHT22;2803;47.916;8.074;2024-03-02T15:30:37;15.10;82.80
5560;DHT22;2803;47.916;8.074;2024-03-02T15:33:03;14.90;83.40
5560;DHT22;2803;47.916;8.074;2024-03-02T15:35:30;14.40;84.40
5560;DHT22;2803;47.916;8.074;2024-03-02T15:37:57;14.60;86.30
5560;DHT22;2803;47.916;8.074;2024-03-02T15:40:24;14.60;86.80
5560;DHT22;2803;47.916;8.074;2024-03-02T15:42:50;14.90;87.80
5560;DHT22;2803;47.916;8.074;2024-03-02T15:45:18;15.10;88.00
5560;DHT22;2803;47.916;8.074;2024-03-02T15:47:45;15.00;89.40
5560;DHT22;2803;47.916;8.074;2024-03-02T15:50:11;14.60;90.20
5560;DHT22;2803;47.916;8.074;2024-03-02T15:52:40;14.30;89.40
5560;DHT22;2803;47.916;8.074;2024-03-02T15:55:07;14.30;90.00
5560;DHT22;2803;47.916;8.074;2024-03-02T15:57:34;14.20;90.20
5560;DHT22;2803;47.916;8.074;2024-03-02T16:00:01;14.70;90.30
5560;DHT22;2803;47.916;8.074;2024-03-02T16:02:30;14.70;90.30
5560;DHT22;2803;47.916;8.074;2024-03-02T16:04:57;14.20;90.50
5560;DHT22;2803;47.916;8.074;2024-03-02T16:07:24;14.40;90.70
5560;DHT22;2803;47.916;8.074;2024-03-02T16:09:50;14.20;91.10
5560;DHT22;2803;47.916;8.074;2024-03-02T16:12:17;14.50;91.00
5560;DHT22;2803;47.916;8.074;2024-03-02T16:14:43;14.10;90.90
5560;DHT22;2803;47.916;8.074;2024-03-02T16:17:10;13.80;91.60